This is the latest recevied weather packets stored in our database for station/object KI8L. If no packets are shown the sender has not sent any weather packets the latest 1 day(s).
| Time | Temp. | Humidity | Pressure | Rain* | Wind** | Luminosity | Snow |
|---|---|---|---|---|---|---|---|
| 1778007586 | 17.78° C | 82% | 1010.1 hPa | 0 mm | 0.89 m/s, 257° | 65 W/m² | - |
| 1778007284 | 17.78° C | 80% | 1010.1 hPa | 0 mm | 0.89 m/s, 230° | 21 W/m² | - |
| 1778006980 | 18.33° C | 77% | 1010.1 hPa | 0 mm | 1.79 m/s, 253° | 30 W/m² | - |
| 1778006677 | 18.33° C | 77% | 1010.1 hPa | 0 mm | 0.45 m/s, 252° | 51 W/m² | - |
| 1778006373 | 18.33° C | 77% | 1010.1 hPa | 0 mm | 0 m/s | 72 W/m² | - |
| 1778006070 | 18.89° C | 77% | 1010.2 hPa | 0 mm | 0.45 m/s, 242° | 107 W/m² | - |
| 1778005767 | 18.89° C | 74% | 1010.1 hPa | 0 mm | 0 m/s | 237 W/m² | - |
| 1778005464 | 18.33° C | 78% | 1010.3 hPa | 0 mm | 0 m/s | 269 W/m² | - |
| 1778005160 | 17.78° C | 79% | 1010.3 hPa | 0 mm | 0.45 m/s, 188° | 118 W/m² | - |
| 1778004858 | 17.78° C | 79% | 1010.7 hPa | 0 mm | 0.45 m/s, 187° | 50 W/m² | - |
| 1778004554 | 17.78° C | 79% | 1010.6 hPa | 0 mm | 0.89 m/s, 254° | 47 W/m² | - |
| 1778004251 | 17.78° C | 78% | 1010.4 hPa | 0 mm | 0.45 m/s, 248° | 71 W/m² | - |
| 1778003948 | 17.78° C | 77% | 1010.5 hPa | 0 mm | 1.34 m/s, 248° | 70 W/m² | - |
| 1778003644 | 17.78° C | 79% | 1010.5 hPa | 0 mm | 1.79 m/s, 216° | 86 W/m² | - |
| 1778003340 | 17.78° C | 77% | 1010.4 hPa | 0 mm | 1.34 m/s, 243° | 112 W/m² | - |
| 1778003038 | 17.78° C | 77% | 1010.3 hPa | 0 mm | 0.89 m/s, 245° | 90 W/m² | - |
| 1778002734 | 17.78° C | 79% | 1010.3 hPa | 0 mm | 0.89 m/s, 236° | 157 W/m² | - |
| 1778002430 | 17.78° C | 78% | 1010.4 hPa | 0 mm | 1.34 m/s, 241° | 54 W/m² | - |
| 1778002127 | 17.78° C | 77% | 1010.5 hPa | 0 mm | 2.24 m/s, 253° | 87 W/m² | - |
| 1778001825 | 17.78° C | 76% | 1010.5 hPa | 0 mm | 1.34 m/s, 249° | 47 W/m² | - |
| 1778001524 | 17.78° C | 76% | 1010.6 hPa | 0 mm | 1.79 m/s, 246° | 50 W/m² | - |
| 1778001222 | 17.78° C | 76% | 1010.6 hPa | 0 mm | 1.79 m/s, 243° | 66 W/m² | - |
| 1778000918 | 17.78° C | 76% | 1010.6 hPa | 0 mm | 0.89 m/s, 247° | 100 W/m² | - |
| 1778000615 | 17.78° C | 77% | 1010.5 hPa | 0 mm | 1.79 m/s, 204° | 74 W/m² | - |
| 1778000310 | 17.78° C | 76% | 1010.4 hPa | 0 mm | 0.45 m/s, 207° | 91 W/m² | - |
* Rain latest hour (hover to see other rain measurements)
** Current wind speed in m/s (hover to see current wind gust speed)